East Hampton, CT

3:49 PM EST on January 25, 2015 (GMT -0500)
East Hampton Fire Headquarters | Change Station
CLOSE
Current Station
Personal Weather Station
Location: East Hampton, CT
Elevation: 413 ft
Nearby Weather Stations
Active Advisory: Blizzard Warning Active Notice: Record Report

Elev 413 ft 41.57 °N, 72.50 °W | Updated 1 second ago

Clear
Clear
31.5 °F
Feels Like 32 °F
N
2.0
Wind Variable Wind from SSE
Gusts 5.0 mph

Today
High -- | Low -- °F
--% Chance of Precip.
Yesterday
High -- | Low -- °F
Precip. -- in
7:08 AM 4:56 PM
Waxing Crescent, 35% visible
Pressure 29.76 in
Visibility 10.0 miles
Clouds Clear
Windchill 32 °F
Dew Point 14 °F
Humidity 47%
Rainfall 0.14 in
Snow Depth Not available.
UV 1 out of 12
Pollen .10 out of 12
Air Quality Not available.
Flu Activity Not available.
METAR KSNC 252035Z AUTO 33009G15KT 10SM CLR 01/M10 A2976 RMK AO2

More Conditions Fewer Conditions

Pressure 29.76 in
Visibility 10.0 miles
Clouds Clear
Windchill 32 °F
Dew Point 14 °F
Humidity 47%
Rainfall 0.14 in
Snow Depth Not available.
UV 1 out of 12
Pollen .10 out of 12
Air Quality Not available.
Flu Activity Not available.
METAR KSNC 252035Z AUTO 33009G15KT 10SM CLR 01/M10 A2976 RMK AO2

More Conditions Fewer Conditions

10-Day Weather Forecast

Almanac

Astronomy

Jan. 25, 2015 Rise Set
Actual Time
Civil Twilight
Nautical Twilight
Astronomical Twilight
Moon
Length of Visible Light
Length of Day
Tomorrow will be .
, % of the Moon is Illuminated

Today's Extremes

State Highs State Lows

Community

WunderPhotos

Upload Photos

1,790,041 photos uploaded!

WunderBlogs® & News

Nearby

Air Quality

  Air Quality AQ Index Pollutant
Not available.

Snow Depth

Station Depth Elevation

Earthquake Activity

City Distance Mag. Time & Date
Minimum magnitude displayed is 2.5.

Coastal Water Temperatures

Place Temperature

Nearby Weather Stations